createdAt,value
2023-09-14T00:01:01.815Z,2.08
2023-09-14T00:03:29.208Z,3.30
2023-09-14T00:05:56.155Z,2.97
2023-09-14T00:08:23.199Z,2.40
2023-09-14T00:10:57.405Z,2.33
2023-09-14T00:13:24.905Z,2.15
2023-09-14T00:15:52.464Z,2.15
2023-09-14T00:18:21.248Z,2.17
2023-09-14T00:20:48.045Z,2.20
2023-09-14T00:23:15.086Z,2.10
2023-09-14T00:25:41.843Z,2.17
2023-09-14T00:28:08.781Z,2.00
2023-09-14T00:30:35.773Z,1.98
2023-09-14T00:33:02.667Z,2.10
2023-09-14T00:35:29.587Z,2.20
2023-09-14T00:37:56.375Z,2.17
2023-09-14T00:40:24.792Z,2.25
2023-09-14T00:42:55.135Z,2.45
2023-09-14T00:45:23.069Z,2.15
2023-09-14T00:47:59.414Z,1.92
2023-09-14T00:50:27.472Z,2.20
2023-09-14T00:53:09.998Z,2.33
2023-09-14T00:55:38.780Z,2.75
2023-09-14T00:58:05.677Z,2.00
2023-09-14T01:00:32.770Z,2.13
2023-09-14T01:03:00.377Z,2.10
2023-09-14T01:05:31.403Z,2.17
2023-09-14T01:07:58.800Z,2.10
2023-09-14T01:10:25.775Z,2.30
2023-09-14T01:12:52.936Z,2.25
2023-09-14T01:15:28.085Z,2.22
2023-09-14T01:18:12.381Z,2.70
2023-09-14T01:20:59.919Z,2.40
2023-09-14T01:23:51.591Z,1.98
2023-09-14T01:26:19.233Z,2.60
2023-09-14T01:28:46.245Z,2.30
2023-09-14T01:31:13.192Z,2.42
2023-09-14T01:33:40.650Z,2.30
2023-09-14T01:36:18.069Z,2.15
2023-09-14T01:38:48.071Z,2.13
2023-09-14T01:41:16.347Z,2.22
2023-09-14T01:43:46.365Z,2.45
2023-09-14T01:46:13.758Z,2.75
2023-09-14T01:48:40.613Z,2.55
2023-09-14T01:51:07.494Z,2.05
2023-09-14T01:53:34.327Z,2.30
2023-09-14T01:56:01.244Z,2.45
2023-09-14T01:58:30.354Z,2.63
2023-09-14T02:00:57.936Z,2.42
2023-09-14T02:03:25.227Z,2.72
2023-09-14T02:06:00.193Z,2.60
2023-09-14T02:08:27.154Z,2.17
2023-09-14T02:10:54.311Z,2.50
2023-09-14T02:13:21.178Z,2.53
2023-09-14T02:15:48.033Z,2.40
2023-09-14T02:18:14.794Z,2.78
2023-09-14T02:20:42.187Z,2.45
2023-09-14T02:23:10.190Z,2.70
2023-09-14T02:25:37.437Z,2.50
2023-09-14T02:28:04.850Z,2.92
2023-09-14T02:30:31.714Z,2.63
2023-09-14T02:32:58.521Z,2.70
2023-09-14T02:35:25.321Z,2.65
2023-09-14T02:37:52.130Z,2.38
2023-09-14T02:40:18.876Z,2.55
2023-09-14T02:42:45.721Z,2.65
2023-09-14T02:45:13.090Z,2.53
2023-09-14T02:47:40.876Z,2.53
2023-09-14T02:50:07.826Z,2.47
2023-09-14T02:52:34.910Z,2.25
2023-09-14T02:55:01.944Z,2.70
2023-09-14T02:57:28.827Z,2.40
2023-09-14T02:59:56.574Z,2.80
2023-09-14T03:02:23.859Z,2.72
2023-09-14T03:04:51.052Z,2.83
2023-09-14T03:07:17.934Z,2.58
2023-09-14T03:09:45.333Z,2.83
2023-09-14T03:12:12.138Z,2.80
2023-09-14T03:14:38.936Z,2.90
2023-09-14T03:17:05.684Z,2.70
2023-09-14T03:19:33.042Z,2.70
2023-09-14T03:22:00.179Z,2.80
2023-09-14T03:24:27.217Z,2.83
2023-09-14T03:26:53.988Z,2.55
2023-09-14T03:29:20.837Z,2.75
2023-09-14T03:31:47.678Z,2.78
2023-09-14T03:34:14.469Z,2.78
2023-09-14T03:36:41.337Z,3.10
2023-09-14T03:39:09.329Z,2.90
2023-09-14T03:41:36.889Z,3.15
2023-09-14T03:44:03.813Z,2.88
2023-09-14T03:46:30.825Z,2.58
2023-09-14T03:48:57.691Z,2.72
2023-09-14T03:51:24.498Z,2.72
2023-09-14T03:53:51.260Z,2.72
2023-09-14T03:56:18.111Z,2.60
2023-09-14T03:58:45.353Z,2.92
2023-09-14T04:01:12.540Z,3.25
2023-09-14T04:03:40.518Z,3.13
2023-09-14T04:06:07.924Z,3.08
2023-09-14T04:08:34.748Z,2.85
2023-09-14T04:11:02.259Z,3.10
2023-09-14T04:13:35.642Z,2.70
2023-09-14T04:16:08.874Z,2.97
2023-09-14T04:18:39.646Z,3.17
2023-09-14T04:21:08.239Z,3.00
2023-09-14T04:23:35.080Z,2.83
2023-09-14T04:26:02.507Z,3.00
2023-09-14T04:31:02.712Z,2.72
2023-09-14T04:33:32.283Z,3.40
2023-09-14T04:36:01.601Z,2.85
2023-09-14T04:38:28.985Z,2.50
2023-09-14T04:40:56.507Z,2.42
2023-09-14T04:43:23.426Z,2.10
2023-09-14T04:45:50.511Z,2.55
2023-09-14T04:48:17.387Z,2.38
2023-09-14T04:50:44.715Z,2.38
2023-09-14T04:53:11.615Z,2.28
2023-09-14T04:55:38.535Z,2.17
2023-09-14T04:58:08.009Z,2.45
2023-09-14T05:00:35.519Z,2.40
2023-09-14T05:03:06.050Z,2.53
2023-09-14T05:05:33.419Z,2.13
2023-09-14T05:08:01.616Z,2.30
2023-09-14T05:10:28.772Z,2.42
2023-09-14T05:12:55.583Z,2.40
2023-09-14T05:15:23.493Z,2.20
2023-09-14T05:17:51.409Z,3.78
2023-09-14T05:20:18.866Z,2.60
2023-09-14T05:22:45.825Z,2.28
2023-09-14T05:25:12.813Z,2.15
2023-09-14T05:27:41.545Z,2.75
2023-09-14T05:30:10.269Z,2.28
2023-09-14T05:32:38.242Z,3.08
2023-09-14T05:35:07.618Z,2.35
2023-09-14T05:37:35.067Z,2.47
2023-09-14T05:40:11.137Z,2.58
2023-09-14T05:42:40.103Z,2.55
2023-09-14T05:45:10.846Z,2.22
2023-09-14T05:47:37.881Z,2.40
2023-09-14T05:50:05.026Z,2.20
2023-09-14T05:52:32.565Z,2.40
2023-09-14T05:54:59.985Z,2.40
2023-09-14T05:57:29.210Z,2.40
2023-09-14T05:59:56.083Z,2.30
2023-09-14T06:02:22.915Z,2.30
2023-09-14T06:04:49.732Z,2.50
2023-09-14T06:07:16.620Z,2.53
2023-09-14T06:09:43.561Z,2.30
2023-09-14T06:12:10.472Z,2.60
2023-09-14T06:14:38.585Z,2.58
2023-09-14T06:17:05.489Z,2.38
2023-09-14T06:19:32.325Z,2.58
2023-09-14T06:21:59.679Z,2.67
2023-09-14T06:24:26.519Z,2.60
2023-09-14T06:26:53.285Z,2.30
2023-09-14T06:29:20.144Z,2.17
2023-09-14T06:31:47.064Z,2.33
2023-09-14T06:34:14.048Z,2.75
2023-09-14T06:36:40.911Z,2.20
2023-09-14T06:39:08.253Z,2.50
2023-09-14T06:41:35.038Z,2.58
2023-09-14T06:44:04.972Z,2.58
2023-09-14T06:46:31.888Z,2.30
2023-09-14T06:48:58.776Z,2.50
2023-09-14T06:51:25.565Z,2.33
2023-09-14T06:53:52.610Z,2.60
2023-09-14T06:56:19.484Z,2.50
2023-09-14T06:58:46.481Z,2.53
2023-09-14T07:01:14.025Z,2.95
2023-09-14T07:03:41.048Z,2.90
2023-09-14T07:06:07.980Z,2.60
2023-09-14T07:08:34.752Z,2.80
2023-09-14T07:11:01.937Z,2.83
2023-09-14T07:13:28.861Z,2.78
2023-09-14T07:15:55.664Z,2.90
2023-09-14T07:18:40.661Z,2.90
2023-09-14T07:21:07.473Z,2.88
2023-09-14T07:23:34.290Z,3.22
2023-09-14T07:26:01.164Z,2.78
2023-09-14T07:28:27.947Z,3.00
2023-09-14T07:30:55.707Z,2.65
2023-09-14T07:33:25.362Z,3.17
2023-09-14T07:35:52.244Z,2.92
2023-09-14T07:38:19.027Z,2.58
2023-09-14T07:40:45.833Z,2.40
2023-09-14T07:43:13.592Z,2.72
2023-09-14T07:45:40.669Z,2.75
2023-09-14T07:48:08.881Z,2.70
2023-09-14T07:53:04.856Z,2.38
2023-09-14T07:55:31.960Z,2.50
2023-09-14T07:57:59.477Z,2.50
2023-09-14T08:00:26.530Z,2.20
2023-09-14T08:02:54.109Z,2.38
2023-09-14T08:05:21.449Z,3.10
2023-09-14T08:07:48.334Z,3.60
2023-09-14T08:10:15.152Z,2.30
2023-09-14T08:12:41.996Z,2.53
2023-09-14T08:15:09.486Z,2.25
2023-09-14T08:17:36.359Z,2.65
2023-09-14T08:20:04.355Z,2.50
2023-09-14T08:25:02.057Z,2.20
2023-09-14T08:27:29.845Z,2.47
2023-09-14T08:29:57.022Z,2.28
2023-09-14T08:32:24.758Z,2.30
2023-09-14T08:34:52.221Z,2.60
2023-09-14T08:37:20.004Z,2.65
2023-09-14T08:39:46.968Z,3.05
2023-09-14T08:42:14.677Z,2.72
2023-09-14T08:44:44.928Z,2.63
2023-09-14T08:47:14.313Z,2.40
2023-09-14T08:49:44.421Z,2.65
2023-09-14T08:52:13.392Z,2.33
2023-09-14T08:54:40.441Z,2.60
2023-09-14T08:57:08.865Z,2.40
2023-09-14T08:59:37.178Z,2.30
2023-09-14T09:02:05.771Z,2.30
2023-09-14T09:04:32.617Z,2.33
2023-09-14T09:07:00.073Z,2.13
2023-09-14T09:09:27.763Z,2.35
2023-09-14T09:11:55.398Z,2.20
2023-09-14T09:14:24.798Z,2.40
2023-09-14T09:16:51.919Z,2.20
2023-09-14T09:19:18.968Z,2.03
2023-09-14T09:21:48.003Z,2.30
2023-09-14T09:24:26.971Z,2.40
2023-09-14T09:26:53.813Z,2.08
2023-09-14T09:29:22.209Z,2.10
2023-09-14T09:31:51.962Z,1.83
2023-09-14T09:34:32.485Z,2.50
2023-09-14T09:37:00.607Z,2.00
2023-09-14T09:39:27.974Z,1.90
2023-09-14T09:41:55.003Z,1.90
2023-09-14T09:44:28.416Z,1.90
2023-09-14T09:46:58.284Z,1.92
2023-09-14T09:49:28.581Z,2.25
2023-09-14T09:51:55.635Z,1.75
2023-09-14T09:54:26.238Z,2.35
2023-09-14T09:56:53.337Z,2.10
2023-09-14T09:59:20.373Z,2.05
2023-09-14T10:01:49.179Z,1.70
2023-09-14T10:04:19.109Z,2.00
2023-09-14T10:06:53.417Z,1.95
2023-09-14T10:09:20.950Z,2.08
2023-09-14T10:11:50.957Z,1.98
2023-09-14T10:14:21.512Z,2.10
2023-09-14T10:16:51.399Z,1.90
2023-09-14T10:19:21.049Z,2.08
2023-09-14T10:21:49.628Z,2.08
2023-09-14T10:24:18.854Z,1.98
2023-09-14T10:26:47.586Z,1.98
2023-09-14T10:29:14.574Z,1.90
2023-09-14T10:31:47.435Z,2.10
2023-09-14T10:34:16.025Z,2.20
2023-09-14T10:36:44.556Z,1.85
2023-09-14T10:39:13.410Z,1.90
2023-09-14T10:41:40.211Z,2.17
2023-09-14T10:44:08.295Z,1.80
2023-09-14T10:46:42.748Z,2.13
2023-09-14T10:49:10.585Z,1.90
2023-09-14T10:51:38.090Z,2.35
2023-09-14T10:54:05.337Z,2.17
2023-09-14T10:56:32.695Z,2.10
2023-09-14T10:59:06.406Z,2.45
2023-09-14T11:01:49.814Z,2.22
2023-09-14T11:04:21.104Z,1.92
2023-09-14T11:06:50.356Z,1.98
2023-09-14T11:09:19.487Z,2.10
2023-09-14T11:11:49.181Z,2.00
2023-09-14T11:14:18.610Z,2.80
2023-09-14T11:16:54.608Z,1.92
2023-09-14T11:19:39.325Z,1.90
2023-09-14T11:22:19.201Z,2.30
2023-09-14T11:24:47.014Z,2.30
2023-09-14T11:27:23.200Z,2.03
2023-09-14T11:29:55.952Z,2.17
2023-09-14T11:32:30.516Z,2.42
2023-09-14T11:35:04.070Z,2.05
2023-09-14T11:37:34.073Z,2.10
2023-09-14T11:40:08.061Z,2.25
2023-09-14T11:43:12.339Z,1.98
2023-09-14T11:45:49.166Z,2.78
2023-09-14T11:50:51.264Z,2.25
2023-09-14T11:53:23.723Z,2.70
2023-09-14T11:55:52.036Z,2.30
2023-09-14T11:58:19.223Z,2.17
2023-09-14T12:00:49.946Z,2.25
2023-09-14T12:03:17.206Z,2.33
2023-09-14T12:05:44.147Z,2.03
2023-09-14T12:08:13.186Z,2.53
2023-09-14T12:10:41.025Z,2.78
2023-09-14T12:15:35.369Z,2.22
2023-09-14T12:18:02.238Z,2.10
2023-09-14T12:20:29.911Z,2.10
2023-09-14T12:22:57.802Z,2.40
2023-09-14T12:25:24.796Z,2.00
2023-09-14T12:27:51.737Z,2.70
2023-09-14T12:30:18.846Z,2.20
2023-09-14T12:32:45.902Z,2.60
2023-09-14T12:35:12.685Z,1.98
2023-09-14T12:37:40.383Z,2.20
2023-09-14T12:40:11.217Z,2.20
2023-09-14T12:42:41.412Z,2.42
2023-09-14T12:45:21.601Z,2.38
2023-09-14T12:47:49.627Z,2.13
2023-09-14T12:50:19.214Z,2.13
2023-09-14T12:52:47.636Z,2.20
2023-09-14T12:55:17.265Z,2.30
2023-09-14T12:57:45.932Z,2.20
2023-09-14T13:00:15.912Z,2.42
2023-09-14T13:02:44.456Z,2.47
2023-09-14T13:05:12.986Z,2.22
2023-09-14T13:07:49.953Z,2.25
2023-09-14T13:10:27.961Z,2.53
2023-09-14T13:12:57.721Z,1.98
2023-09-14T13:15:32.335Z,2.13
2023-09-14T13:18:04.794Z,2.53
2023-09-14T13:20:33.873Z,2.20
2023-09-14T13:23:07.437Z,2.58
2023-09-14T13:25:34.286Z,2.20
2023-09-14T13:28:02.205Z,2.60
2023-09-14T13:30:30.407Z,2.28
2023-09-14T13:32:57.722Z,2.30
2023-09-14T13:35:26.061Z,2.20
2023-09-14T13:37:53.756Z,2.33
2023-09-14T13:40:21.745Z,2.60
2023-09-14T13:42:50.896Z,2.60
2023-09-14T13:45:21.876Z,2.45
2023-09-14T13:47:49.862Z,2.42
2023-09-14T13:50:16.964Z,2.60
2023-09-14T13:52:44.224Z,2.40
2023-09-14T13:55:11.348Z,2.67
2023-09-14T13:57:39.382Z,2.45
2023-09-14T14:00:14.280Z,2.42
2023-09-14T14:02:43.029Z,2.30
2023-09-14T14:05:10.271Z,2.45
2023-09-14T14:07:37.194Z,3.03
2023-09-14T14:10:06.315Z,2.60
2023-09-14T14:12:34.052Z,2.85
2023-09-14T14:15:01.418Z,2.60
2023-09-14T14:17:28.801Z,2.97
2023-09-14T14:19:56.007Z,2.50
2023-09-14T14:22:23.149Z,2.33
2023-09-14T14:24:50.075Z,2.80
2023-09-14T14:27:18.319Z,2.50
2023-09-14T14:29:45.517Z,2.55
2023-09-14T14:32:12.477Z,2.75
2023-09-14T14:34:39.230Z,2.67
2023-09-14T14:37:07.216Z,2.70
2023-09-14T14:39:34.115Z,2.63
2023-09-14T14:42:00.993Z,2.40
2023-09-14T14:44:29.025Z,2.17
2023-09-14T14:49:22.718Z,2.78
2023-09-14T14:51:49.628Z,2.95
2023-09-14T14:54:16.398Z,3.00
2023-09-14T14:56:43.179Z,2.97
2023-09-14T14:59:10.038Z,3.22
2023-09-14T15:01:37.007Z,2.58
2023-09-14T15:04:04.743Z,2.45
2023-09-14T15:06:32.409Z,2.85
2023-09-14T15:08:59.222Z,2.85
2023-09-14T15:11:27.089Z,2.75
2023-09-14T15:13:54.888Z,3.10
2023-09-14T15:16:21.874Z,3.00
2023-09-14T15:18:49.054Z,3.00
2023-09-14T15:21:16.122Z,3.00
2023-09-14T15:23:42.911Z,3.40
2023-09-14T15:26:10.054Z,2.70
2023-09-14T15:28:36.822Z,3.40
2023-09-14T15:31:12.086Z,3.40
2023-09-14T15:33:39.053Z,2.85
2023-09-14T15:36:06.528Z,2.80
2023-09-14T15:38:33.406Z,3.03
2023-09-14T15:41:00.335Z,3.20
2023-09-14T15:43:27.113Z,3.10
2023-09-14T15:46:00.131Z,3.47
2023-09-14T15:48:28.560Z,3.00
2023-09-14T15:50:55.673Z,2.70
2023-09-14T15:53:25.087Z,2.72
2023-09-14T15:55:54.944Z,2.65
2023-09-14T15:58:22.077Z,3.00
2023-09-14T16:00:49.336Z,3.08
2023-09-14T16:03:16.457Z,3.08
2023-09-14T16:05:43.341Z,2.75
2023-09-14T16:08:12.882Z,3.10
2023-09-14T16:10:40.829Z,3.13
2023-09-14T16:13:10.748Z,2.67
2023-09-14T16:15:39.125Z,3.00
2023-09-14T16:18:06.488Z,3.22
2023-09-14T16:20:33.586Z,3.20
2023-09-14T16:23:00.444Z,3.63
2023-09-14T16:25:27.887Z,3.00
2023-09-14T16:27:55.316Z,3.30
2023-09-14T16:30:22.225Z,3.50
2023-09-14T16:32:50.736Z,2.90
2023-09-14T16:35:18.084Z,3.30
2023-09-14T16:37:45.200Z,3.10
2023-09-14T16:40:12.386Z,3.25
2023-09-14T16:42:39.492Z,3.00
2023-09-14T16:45:06.917Z,3.28
2023-09-14T16:47:34.057Z,3.50
2023-09-14T16:50:02.146Z,3.25
2023-09-14T16:52:30.946Z,3.85
2023-09-14T16:57:25.819Z,2.95
2023-09-14T16:59:52.997Z,3.10
2023-09-14T17:02:23.009Z,3.00
2023-09-14T17:04:50.952Z,2.83
2023-09-14T17:07:18.610Z,3.40
2023-09-14T17:09:45.821Z,3.25
2023-09-14T17:12:12.772Z,3.03
2023-09-14T17:14:40.039Z,3.35
2023-09-14T17:17:07.062Z,3.15
2023-09-14T17:19:34.316Z,3.05
2023-09-14T17:22:02.449Z,3.65
2023-09-14T17:24:29.380Z,3.40
2023-09-14T17:26:56.356Z,3.17
2023-09-14T17:29:23.138Z,3.42
2023-09-14T17:31:50.026Z,3.70
2023-09-14T17:34:18.303Z,3.45
2023-09-14T17:36:48.663Z,3.58
2023-09-14T17:39:17.200Z,3.45
2023-09-14T17:41:45.596Z,3.20
2023-09-14T17:44:12.582Z,3.67
2023-09-14T17:46:39.645Z,3.38
2023-09-14T17:49:07.821Z,3.65
2023-09-14T17:51:35.469Z,3.72
2023-09-14T17:54:04.256Z,3.60
2023-09-14T17:56:33.023Z,3.80
2023-09-14T17:59:00.628Z,3.50
2023-09-14T18:01:27.708Z,3.50
2023-09-14T18:03:55.285Z,3.90
2023-09-14T18:06:22.327Z,4.25
2023-09-14T18:08:49.630Z,3.55
2023-09-14T18:11:17.086Z,3.50
2023-09-14T18:13:44.090Z,4.03
2023-09-14T18:16:10.870Z,4.35
2023-09-14T18:18:38.859Z,4.20
2023-09-14T18:21:05.745Z,4.20
2023-09-14T18:23:32.632Z,3.65
2023-09-14T18:26:00.188Z,3.65
2023-09-14T18:28:28.618Z,4.05
2023-09-14T18:30:56.731Z,3.97
2023-09-14T18:35:56.932Z,4.35
2023-09-14T18:38:25.327Z,5.03
2023-09-14T18:41:02.644Z,4.80
2023-09-14T18:43:30.001Z,5.22
2023-09-14T18:45:57.161Z,4.70
2023-09-14T18:48:25.400Z,4.45
2023-09-14T18:51:02.092Z,4.45
2023-09-14T18:53:29.120Z,5.25
2023-09-14T18:55:55.957Z,4.50
2023-09-14T18:58:54.745Z,5.22
2023-09-14T19:01:10.976Z,4.90
2023-09-14T19:03:39.198Z,3.88
2023-09-14T19:06:06.568Z,4.80
2023-09-14T19:08:33.425Z,5.05
2023-09-14T19:11:00.314Z,5.05
2023-09-14T19:13:27.096Z,4.72
2023-09-14T19:15:54.141Z,4.68
2023-09-14T19:18:20.980Z,4.20
2023-09-14T19:20:48.269Z,4.38
2023-09-14T19:23:15.709Z,4.72
2023-09-14T19:25:43.008Z,5.57
2023-09-14T19:28:10.165Z,5.70
2023-09-14T19:30:38.190Z,5.90
2023-09-14T19:33:05.883Z,5.72
2023-09-14T19:35:33.010Z,5.80
2023-09-14T19:38:00.181Z,6.15
2023-09-14T19:40:28.173Z,5.70
2023-09-14T19:42:56.110Z,6.13
2023-09-14T19:47:50.498Z,5.88
2023-09-14T19:50:17.425Z,5.80
2023-09-14T19:52:44.254Z,5.72
2023-09-14T19:55:11.118Z,5.72
2023-09-14T19:57:38.064Z,7.10
2023-09-14T20:00:05.873Z,5.85
2023-09-14T20:02:35.967Z,7.05
2023-09-14T20:05:04.291Z,6.50
2023-09-14T20:07:31.237Z,6.35
2023-09-14T20:09:58.108Z,5.85
2023-09-14T20:12:25.152Z,6.65
2023-09-14T20:14:51.950Z,6.47
2023-09-14T20:17:18.858Z,6.90
2023-09-14T20:19:45.718Z,5.72
2023-09-14T20:22:12.731Z,6.47
2023-09-14T20:24:40.515Z,6.13
2023-09-14T20:27:08.451Z,7.00
2023-09-14T20:29:36.256Z,6.00
2023-09-14T20:32:04.495Z,5.95
2023-09-14T20:36:58.172Z,7.53
2023-09-14T20:39:29.635Z,7.20
2023-09-14T20:42:01.585Z,6.75
2023-09-14T20:44:28.761Z,6.82
2023-09-14T20:46:58.217Z,7.95
2023-09-14T20:49:26.791Z,7.00
2023-09-14T20:51:53.772Z,7.32
2023-09-14T20:54:24.292Z,7.43
2023-09-14T20:56:51.183Z,7.55
2023-09-14T20:59:19.107Z,7.63
2023-09-14T21:01:46.562Z,7.72
2023-09-14T21:04:13.574Z,8.25
2023-09-14T21:06:41.389Z,7.88
2023-09-14T21:09:08.470Z,7.90
2023-09-14T21:11:38.332Z,8.00
2023-09-14T21:14:08.677Z,7.43
2023-09-14T21:16:36.424Z,7.88
2023-09-14T21:19:03.418Z,7.63
2023-09-14T21:21:30.328Z,8.20
2023-09-14T21:23:57.086Z,8.65
2023-09-14T21:26:24.034Z,7.82
2023-09-14T21:28:50.847Z,7.97
2023-09-14T21:31:17.735Z,7.10
2023-09-14T21:33:45.379Z,7.45
2023-09-14T21:36:12.645Z,8.23
2023-09-14T21:38:39.811Z,8.27
2023-09-14T21:41:06.984Z,7.70
2023-09-14T21:43:37.528Z,8.95
2023-09-14T21:46:08.569Z,8.23
2023-09-14T21:48:35.906Z,8.20
2023-09-14T21:51:03.052Z,7.90
2023-09-14T21:53:30.272Z,8.02
2023-09-14T21:55:57.788Z,8.35
2023-09-14T21:58:25.485Z,8.52
2023-09-14T22:00:53.091Z,8.73
2023-09-14T22:03:20.426Z,8.82
2023-09-14T22:05:51.186Z,8.10
2023-09-14T22:08:18.633Z,8.25
2023-09-14T22:10:46.112Z,8.95
2023-09-14T22:13:13.584Z,8.85
2023-09-14T22:15:41.317Z,8.20
2023-09-14T22:18:08.215Z,7.90
2023-09-14T22:20:43.822Z,9.05
2023-09-14T22:23:10.797Z,9.35
2023-09-14T22:25:42.223Z,8.93
2023-09-14T22:28:09.233Z,8.85
2023-09-14T22:30:36.911Z,9.25
2023-09-14T22:33:05.195Z,9.50
2023-09-14T22:35:32.918Z,9.20
2023-09-14T22:37:59.751Z,9.93
2023-09-14T22:40:26.585Z,9.98
2023-09-14T22:42:53.782Z,8.95
2023-09-14T22:45:21.999Z,9.15
2023-09-14T22:50:17.497Z,9.70
2023-09-14T22:52:45.072Z,8.63
2023-09-14T22:55:16.612Z,9.60
2023-09-14T22:57:44.251Z,10.10
2023-09-14T23:00:11.989Z,10.05
2023-09-14T23:02:39.549Z,10.02
2023-09-14T23:05:12.001Z,9.57
2023-09-14T23:07:40.289Z,9.23
2023-09-14T23:10:19.523Z,10.40
2023-09-14T23:12:47.236Z,9.10
2023-09-14T23:15:17.400Z,9.27
2023-09-14T23:17:44.542Z,8.60
2023-09-14T23:20:27.416Z,9.50
2023-09-14T23:22:56.619Z,9.52
2023-09-14T23:25:24.297Z,10.75
2023-09-14T23:27:54.392Z,8.88
2023-09-14T23:30:22.535Z,10.20
2023-09-14T23:32:52.471Z,9.60
2023-09-14T23:35:20.389Z,9.55
2023-09-14T23:37:47.567Z,9.85
2023-09-14T23:40:33.853Z,9.18
2023-09-14T23:43:02.762Z,9.77
2023-09-14T23:47:56.964Z,9.02
2023-09-14T23:50:23.960Z,9.23
2023-09-14T23:52:54.251Z,9.10
2023-09-14T23:55:21.190Z,9.40
2023-09-14T23:57:48.144Z,9.00
